createdAt,value
2019-03-29T00:00:01.752Z,0.00
2019-03-29T00:01:01.739Z,0.00
2019-03-29T00:02:01.730Z,0.00
2019-03-29T00:03:01.723Z,0.00
2019-03-29T00:04:01.714Z,0.00
2019-03-29T00:05:01.706Z,0.00
2019-03-29T00:06:01.694Z,0.00
2019-03-29T00:07:01.684Z,0.00
2019-03-29T00:08:01.671Z,0.00
2019-03-29T00:09:02.084Z,0.00
2019-03-29T00:10:01.653Z,0.00
2019-03-29T00:11:01.645Z,0.00
2019-03-29T00:12:01.629Z,0.00
2019-03-29T00:13:01.621Z,0.00
2019-03-29T00:14:01.614Z,0.00
2019-03-29T00:15:01.611Z,0.00
2019-03-29T00:16:01.597Z,0.00
2019-03-29T00:17:01.589Z,0.00
2019-03-29T00:18:01.577Z,0.00
2019-03-29T00:19:02.047Z,0.00
2019-03-29T00:20:01.556Z,0.00
2019-03-29T00:21:01.545Z,0.00
2019-03-29T00:22:01.537Z,0.00
2019-03-29T00:23:01.526Z,0.00
2019-03-29T00:24:07.068Z,0.00
2019-03-29T00:25:01.511Z,0.00
2019-03-29T00:26:01.496Z,0.00
2019-03-29T00:27:01.487Z,0.00
2019-03-29T00:28:01.483Z,0.00
2019-03-29T00:29:01.476Z,0.00
2019-03-29T00:30:01.461Z,0.00
2019-03-29T00:31:01.450Z,0.00
2019-03-29T00:32:01.438Z,0.00
2019-03-29T00:33:01.426Z,0.00
2019-03-29T00:34:01.418Z,0.00
2019-03-29T00:35:01.407Z,0.00
2019-03-29T00:36:01.410Z,0.00
2019-03-29T00:37:01.391Z,0.00
2019-03-29T00:38:01.384Z,0.00
2019-03-29T00:39:01.382Z,0.00
2019-03-29T00:40:01.361Z,0.00
2019-03-29T00:41:01.350Z,0.00
2019-03-29T00:42:01.345Z,0.00
2019-03-29T00:43:01.334Z,0.00
2019-03-29T00:44:01.349Z,0.00
2019-03-29T00:45:01.311Z,0.00
2019-03-29T00:46:01.298Z,0.00
2019-03-29T00:47:01.289Z,0.00
2019-03-29T00:48:01.282Z,0.00
2019-03-29T00:49:01.273Z,0.00
2019-03-29T00:50:01.266Z,0.00
2019-03-29T00:51:01.254Z,0.00
2019-03-29T00:52:01.239Z,0.00
2019-03-29T00:53:01.228Z,0.00
2019-03-29T00:54:01.944Z,0.00
2019-03-29T00:55:01.212Z,0.00
2019-03-29T00:56:01.303Z,0.00
2019-03-29T00:57:01.250Z,0.00
2019-03-29T00:58:01.184Z,0.00
2019-03-29T00:59:01.172Z,0.00
2019-03-29T01:00:01.168Z,0.00
2019-03-29T01:01:01.174Z,0.00
2019-03-29T01:02:01.146Z,0.00
2019-03-29T01:03:01.135Z,0.00
2019-03-29T01:04:01.120Z,0.00
2019-03-29T01:05:01.113Z,0.00
2019-03-29T01:06:01.101Z,0.00
2019-03-29T01:07:01.091Z,0.00
2019-03-29T01:08:07.729Z,0.00
2019-03-29T01:09:01.075Z,0.00
2019-03-29T01:10:01.070Z,0.00
2019-03-29T01:11:01.056Z,0.00
2019-03-29T01:12:01.045Z,0.00
2019-03-29T01:13:01.031Z,0.00
2019-03-29T01:14:01.028Z,0.00
2019-03-29T01:15:01.016Z,0.00
2019-03-29T01:16:01.179Z,0.00
2019-03-29T01:17:00.994Z,0.00
2019-03-29T01:18:00.983Z,0.00
2019-03-29T01:19:00.968Z,0.00
2019-03-29T01:20:00.964Z,0.00
2019-03-29T01:21:01.023Z,0.00
2019-03-29T01:22:00.948Z,0.00
2019-03-29T01:23:00.936Z,0.00
2019-03-29T01:24:00.921Z,0.00
2019-03-29T01:25:00.914Z,0.00
2019-03-29T01:26:01.121Z,0.00
2019-03-29T01:27:00.887Z,0.00
2019-03-29T01:28:00.887Z,0.00
2019-03-29T01:29:00.875Z,0.00
2019-03-29T01:30:00.859Z,0.00
2019-03-29T01:31:00.849Z,0.00
2019-03-29T01:32:00.842Z,0.00
2019-03-29T01:33:00.833Z,0.00
2019-03-29T01:34:00.833Z,0.00
2019-03-29T01:35:00.816Z,0.00
2019-03-29T01:36:01.296Z,0.00
2019-03-29T01:37:00.791Z,0.00
2019-03-29T01:38:00.781Z,0.00
2019-03-29T01:39:00.768Z,0.00
2019-03-29T01:40:00.764Z,0.00
2019-03-29T01:41:01.118Z,0.00
2019-03-29T01:42:00.741Z,0.00
2019-03-29T01:43:00.731Z,0.00
2019-03-29T01:44:01.876Z,0.00
2019-03-29T01:45:00.707Z,0.00
2019-03-29T01:46:00.700Z,0.00
2019-03-29T01:47:00.689Z,0.00
2019-03-29T01:48:00.675Z,0.00
2019-03-29T01:49:00.665Z,0.00
2019-03-29T01:50:00.658Z,0.00
2019-03-29T01:51:01.299Z,0.00
2019-03-29T01:52:00.640Z,0.00
2019-03-29T01:53:00.632Z,0.00
2019-03-29T01:54:00.621Z,0.00
2019-03-29T01:55:00.610Z,0.00
2019-03-29T01:56:00.596Z,0.00
2019-03-29T01:57:00.586Z,0.00
2019-03-29T01:58:00.574Z,0.00
2019-03-29T01:59:00.563Z,0.00
2019-03-29T02:00:00.559Z,0.00
2019-03-29T02:01:00.548Z,0.00
2019-03-29T02:02:00.535Z,0.00
2019-03-29T02:03:00.523Z,0.00
2019-03-29T02:04:00.518Z,0.00
2019-03-29T02:05:01.171Z,0.00
2019-03-29T02:06:00.497Z,0.00
2019-03-29T02:07:00.489Z,0.00
2019-03-29T02:08:00.475Z,0.00
2019-03-29T02:09:00.466Z,0.00
2019-03-29T02:10:00.452Z,0.00
2019-03-29T02:11:00.442Z,0.00
2019-03-29T02:12:00.439Z,0.00
2019-03-29T02:13:00.426Z,0.00
2019-03-29T02:14:00.415Z,0.00
2019-03-29T02:15:00.403Z,0.00
2019-03-29T02:16:00.389Z,0.00
2019-03-29T02:17:00.378Z,0.00
2019-03-29T02:18:00.374Z,0.00
2019-03-29T02:19:00.363Z,0.00
2019-03-29T02:20:00.346Z,0.00
2019-03-29T02:21:00.338Z,0.00
2019-03-29T02:22:00.331Z,0.00
2019-03-29T02:23:00.319Z,0.00
2019-03-29T02:24:00.317Z,0.00
2019-03-29T02:25:00.442Z,0.00
2019-03-29T02:26:00.291Z,0.00
2019-03-29T02:27:00.980Z,0.00
2019-03-29T02:28:00.264Z,0.00
2019-03-29T02:29:00.254Z,0.00
2019-03-29T02:30:00.561Z,0.00
2019-03-29T02:31:00.236Z,0.00
2019-03-29T02:32:00.232Z,0.00
2019-03-29T02:33:00.224Z,0.00
2019-03-29T02:34:00.212Z,0.00
2019-03-29T02:35:00.474Z,0.00
2019-03-29T02:36:00.198Z,0.00
2019-03-29T02:37:01.940Z,0.00
2019-03-29T02:38:00.185Z,0.00
2019-03-29T02:39:00.157Z,0.00
2019-03-29T02:40:00.632Z,0.00
2019-03-29T02:41:00.136Z,0.00
2019-03-29T02:42:00.123Z,0.00
2019-03-29T02:43:00.117Z,0.00
2019-03-29T02:44:00.105Z,0.00
2019-03-29T02:45:00.455Z,0.00
2019-03-29T02:46:00.090Z,0.00
2019-03-29T02:47:00.080Z,0.00
2019-03-29T02:48:00.065Z,0.00
2019-03-29T02:49:00.055Z,0.00
2019-03-29T02:50:00.052Z,0.00
2019-03-29T02:51:00.037Z,0.00
2019-03-29T02:52:00.024Z,0.00
2019-03-29T02:53:00.015Z,0.00
2019-03-29T02:54:00.001Z,0.00
2019-03-29T02:54:59.989Z,0.00
2019-03-29T02:55:59.985Z,0.00
2019-03-29T02:56:59.974Z,0.00
2019-03-29T02:57:59.964Z,0.00
2019-03-29T02:58:59.956Z,0.00
2019-03-29T02:59:59.941Z,0.00
2019-03-29T03:00:59.941Z,0.00
2019-03-29T03:01:59.923Z,0.00
2019-03-29T03:02:59.910Z,0.00
2019-03-29T03:03:59.907Z,0.00
2019-03-29T03:04:59.896Z,0.00
2019-03-29T03:05:59.883Z,0.00
2019-03-29T03:06:59.873Z,0.00
2019-03-29T03:07:59.868Z,0.00
2019-03-29T03:09:13.110Z,0.00
2019-03-29T03:09:59.844Z,0.00
2019-03-29T03:10:59.836Z,0.00
2019-03-29T03:11:59.830Z,0.00
2019-03-29T03:12:59.809Z,0.00
2019-03-29T03:13:59.801Z,0.00
2019-03-29T03:14:59.787Z,0.00
2019-03-29T03:15:59.784Z,0.00
2019-03-29T03:16:59.773Z,0.00
2019-03-29T03:17:59.765Z,0.00
2019-03-29T03:18:59.761Z,0.00
2019-03-29T03:19:59.740Z,0.00
2019-03-29T03:20:59.733Z,0.00
2019-03-29T03:21:59.728Z,0.00
2019-03-29T03:22:59.714Z,0.00
2019-03-29T03:23:59.700Z,0.00
2019-03-29T03:24:59.697Z,0.00
2019-03-29T03:25:59.677Z,0.00
2019-03-29T03:26:59.667Z,0.00
2019-03-29T03:27:59.662Z,0.00
2019-03-29T03:28:59.652Z,0.00
2019-03-29T03:29:59.649Z,0.00
2019-03-29T03:30:59.633Z,0.00
2019-03-29T03:31:59.620Z,0.00
2019-03-29T03:32:59.609Z,0.00
2019-03-29T03:33:59.599Z,0.00
2019-03-29T03:34:59.585Z,0.00
2019-03-29T03:35:59.579Z,0.00
2019-03-29T03:36:59.570Z,0.00
2019-03-29T03:37:59.556Z,0.00
2019-03-29T03:38:59.545Z,0.00
2019-03-29T03:39:59.551Z,0.00
2019-03-29T03:40:59.545Z,0.00
2019-03-29T03:41:59.709Z,0.00
2019-03-29T03:42:59.515Z,0.00
2019-03-29T03:43:59.496Z,0.00
2019-03-29T03:44:59.486Z,0.00
2019-03-29T03:45:59.474Z,0.00
2019-03-29T03:46:59.481Z,0.00
2019-03-29T03:47:59.457Z,0.00
2019-03-29T03:48:59.459Z,0.00
2019-03-29T03:50:01.148Z,0.00
2019-03-29T03:50:59.424Z,0.00
2019-03-29T03:51:59.409Z,0.00
2019-03-29T03:52:59.399Z,0.00
2019-03-29T03:53:59.405Z,0.00
2019-03-29T03:54:59.390Z,0.00
2019-03-29T03:55:59.369Z,0.00
2019-03-29T03:56:59.359Z,0.00
2019-03-29T03:57:59.352Z,0.00
2019-03-29T03:58:59.341Z,0.00
2019-03-29T03:59:59.345Z,0.00
2019-03-29T04:00:59.353Z,0.00
2019-03-29T04:01:59.313Z,0.00
2019-03-29T04:02:59.308Z,0.00
2019-03-29T04:03:59.289Z,0.00
2019-03-29T04:04:59.284Z,0.00
2019-03-29T04:05:59.267Z,0.00
2019-03-29T04:06:59.254Z,0.00
2019-03-29T04:07:59.251Z,0.00
2019-03-29T04:08:59.237Z,0.00
2019-03-29T04:09:59.225Z,0.00
2019-03-29T04:10:59.216Z,0.00
2019-03-29T04:11:59.208Z,0.00
2019-03-29T04:12:59.202Z,0.00
2019-03-29T04:13:59.192Z,0.00
2019-03-29T04:14:59.180Z,0.00
2019-03-29T04:15:59.167Z,0.00
2019-03-29T04:16:59.159Z,0.00
2019-03-29T04:17:59.146Z,0.00
2019-03-29T04:18:59.134Z,0.00
2019-03-29T04:19:59.130Z,0.00
2019-03-29T04:20:59.116Z,0.00
2019-03-29T04:21:59.104Z,0.00
2019-03-29T04:22:59.100Z,0.00
2019-03-29T04:23:59.078Z,0.00
2019-03-29T04:24:59.069Z,0.00
2019-03-29T04:25:59.063Z,0.00
2019-03-29T04:26:59.053Z,0.00
2019-03-29T04:27:59.035Z,0.00
2019-03-29T04:29:04.902Z,0.00
2019-03-29T04:29:59.017Z,0.00
2019-03-29T04:30:59.010Z,0.00
2019-03-29T04:31:59.008Z,0.00
2019-03-29T04:32:59.157Z,0.00
2019-03-29T04:33:58.982Z,0.00
2019-03-29T04:34:58.970Z,0.00
2019-03-29T04:35:58.959Z,0.00
2019-03-29T04:36:58.943Z,0.00
2019-03-29T04:37:58.932Z,0.00
2019-03-29T04:38:58.921Z,0.00
2019-03-29T04:40:07.158Z,0.00
2019-03-29T04:40:58.904Z,0.00
2019-03-29T04:41:58.894Z,0.00
2019-03-29T04:42:58.877Z,0.00
2019-03-29T04:43:58.872Z,0.00
2019-03-29T04:44:59.978Z,0.00
2019-03-29T04:45:58.852Z,0.00
2019-03-29T04:46:58.842Z,0.00
2019-03-29T04:47:58.828Z,0.00
2019-03-29T04:48:58.819Z,0.00
2019-03-29T04:49:58.815Z,0.00
2019-03-29T04:50:58.797Z,0.00
2019-03-29T04:51:58.788Z,0.00
2019-03-29T04:52:58.779Z,0.00
2019-03-29T04:53:58.766Z,0.00
2019-03-29T04:54:58.754Z,0.00
2019-03-29T04:55:58.741Z,0.00
2019-03-29T04:56:58.728Z,0.00
2019-03-29T04:57:58.809Z,0.00
2019-03-29T04:58:58.712Z,0.00
2019-03-29T04:59:58.699Z,0.00
2019-03-29T05:00:58.688Z,0.00
2019-03-29T05:01:58.681Z,0.00
2019-03-29T05:02:58.676Z,0.00
2019-03-29T05:03:58.661Z,0.00
2019-03-29T05:04:58.652Z,5.63
2019-03-29T05:05:58.641Z,5.63
2019-03-29T05:06:58.630Z,5.63
2019-03-29T05:07:58.617Z,5.63
2019-03-29T05:08:58.604Z,5.63
2019-03-29T05:09:58.590Z,5.63
2019-03-29T05:10:58.579Z,5.63
2019-03-29T05:11:58.575Z,11.25
2019-03-29T05:12:59.723Z,11.25
2019-03-29T05:13:58.549Z,11.25
2019-03-29T05:14:58.540Z,11.25
2019-03-29T05:15:58.532Z,16.88
2019-03-29T05:16:58.524Z,16.88
2019-03-29T05:17:58.513Z,16.88
2019-03-29T05:18:58.500Z,16.88
2019-03-29T05:19:58.486Z,22.50
2019-03-29T05:20:58.475Z,22.50
2019-03-29T05:21:58.465Z,28.13
2019-03-29T05:22:58.454Z,28.13
2019-03-29T05:23:58.447Z,28.13
2019-03-29T05:24:58.437Z,33.75
2019-03-29T05:25:58.425Z,33.75
2019-03-29T05:26:58.413Z,39.38
2019-03-29T05:27:58.397Z,39.38
2019-03-29T05:28:58.388Z,45.00
2019-03-29T05:29:58.383Z,45.00
2019-03-29T05:30:58.369Z,50.63
2019-03-29T05:31:58.357Z,50.63
2019-03-29T05:32:58.347Z,56.25
2019-03-29T05:33:58.337Z,56.25
2019-03-29T05:34:58.327Z,61.88
2019-03-29T05:35:58.318Z,67.50
2019-03-29T05:36:58.659Z,73.13
2019-03-29T05:37:58.297Z,73.13
2019-03-29T05:38:58.286Z,101.25
2019-03-29T05:39:58.285Z,135.00
2019-03-29T05:40:58.259Z,168.75
2019-03-29T05:41:58.252Z,185.63
2019-03-29T05:42:58.243Z,202.50
2019-03-29T05:43:58.234Z,208.13
2019-03-29T05:44:58.227Z,225.00
2019-03-29T05:45:58.210Z,241.88
2019-03-29T05:46:58.200Z,247.50
2019-03-29T05:47:58.195Z,258.75
2019-03-29T05:48:58.190Z,275.63
2019-03-29T05:49:58.172Z,292.50
2019-03-29T05:50:58.162Z,303.75
2019-03-29T05:51:58.146Z,320.63
2019-03-29T05:52:58.139Z,337.50
2019-03-29T05:53:58.129Z,348.75
2019-03-29T05:54:58.119Z,360.00
2019-03-29T05:55:58.114Z,376.88
2019-03-29T05:56:58.106Z,393.75
2019-03-29T05:57:58.099Z,410.63
2019-03-29T05:58:58.089Z,433.13
2019-03-29T05:59:58.077Z,438.75
2019-03-29T06:00:58.068Z,450.00
2019-03-29T06:01:58.064Z,466.88
2019-03-29T06:02:58.057Z,483.75
2019-03-29T06:03:58.043Z,506.25
2019-03-29T06:04:58.037Z,511.88
2019-03-29T06:05:58.026Z,534.38
2019-03-29T06:06:58.020Z,545.63
2019-03-29T06:07:58.017Z,562.50
2019-03-29T06:08:58.008Z,579.38
2019-03-29T06:09:58.002Z,596.25
2019-03-29T06:10:57.993Z,613.13
2019-03-29T06:11:57.982Z,635.63
2019-03-29T06:12:57.978Z,646.88
2019-03-29T06:13:57.972Z,675.00
2019-03-29T06:14:57.966Z,686.25
2019-03-29T06:15:57.963Z,703.13
2019-03-29T06:16:57.957Z,720.00
2019-03-29T06:17:57.948Z,736.88
2019-03-29T06:18:57.943Z,753.75
2019-03-29T06:19:57.940Z,776.25
2019-03-29T06:20:57.936Z,793.13
2019-03-29T06:21:57.930Z,821.25
2019-03-29T06:22:57.924Z,832.50
2019-03-29T06:23:57.914Z,843.75
2019-03-29T06:24:57.908Z,860.63
2019-03-29T06:25:57.906Z,877.50
2019-03-29T06:26:57.985Z,900.00
2019-03-29T06:27:57.902Z,911.25
2019-03-29T06:28:57.897Z,916.88
2019-03-29T06:29:57.896Z,933.75
2019-03-29T06:30:57.897Z,950.63
2019-03-29T06:31:57.885Z,967.50
2019-03-29T06:32:57.884Z,984.38
2019-03-29T06:33:57.883Z,995.63
2019-03-29T06:34:57.880Z,1012.50
2019-03-29T06:35:57.873Z,1023.75
2019-03-29T06:36:57.870Z,1046.25
2019-03-29T06:37:57.867Z,1057.50
2019-03-29T06:38:57.864Z,1074.38
2019-03-29T06:39:57.866Z,1091.25
2019-03-29T06:41:03.241Z,1108.13
2019-03-29T06:41:57.866Z,1125.00
2019-03-29T06:42:57.864Z,1147.50
2019-03-29T06:43:57.861Z,1164.38
2019-03-29T06:44:57.859Z,1181.25
2019-03-29T06:45:57.856Z,1186.88
2019-03-29T06:46:57.855Z,1203.75
2019-03-29T06:47:57.858Z,1209.38
2019-03-29T06:48:57.860Z,1231.88
2019-03-29T06:49:57.853Z,1237.50
2019-03-29T06:50:57.857Z,1254.38
2019-03-29T06:51:57.857Z,1265.63
2019-03-29T06:52:57.860Z,1288.13
2019-03-29T06:53:57.865Z,1293.75
2019-03-29T06:54:57.863Z,1305.00
2019-03-29T06:55:59.475Z,1321.88
2019-03-29T06:56:57.861Z,1333.13
2019-03-29T06:57:57.865Z,1350.00
2019-03-29T06:58:57.862Z,1355.63
2019-03-29T06:59:57.868Z,1366.88
2019-03-29T07:00:57.869Z,1389.38
2019-03-29T07:01:57.873Z,1395.00
2019-03-29T07:02:57.872Z,1406.25
2019-03-29T07:03:57.868Z,1411.88
2019-03-29T07:04:57.871Z,1428.75
2019-03-29T07:05:57.879Z,1440.00
2019-03-29T07:06:57.881Z,1451.25
2019-03-29T07:07:57.879Z,1468.13
2019-03-29T07:08:57.881Z,1473.75
2019-03-29T07:09:57.888Z,1496.25
2019-03-29T07:10:57.890Z,1513.13
2019-03-29T07:11:57.898Z,1524.38
2019-03-29T07:12:57.903Z,1530.00
2019-03-29T07:13:58.262Z,1535.63
2019-03-29T07:14:57.906Z,1546.88
2019-03-29T07:15:57.909Z,1546.88
2019-03-29T07:16:57.911Z,1569.38
2019-03-29T07:17:57.911Z,1575.00
2019-03-29T07:18:57.916Z,1591.88
2019-03-29T07:19:57.923Z,1597.50
2019-03-29T07:20:57.930Z,1603.13
2019-03-29T07:21:57.928Z,1614.38
2019-03-29T07:22:57.930Z,1614.38
2019-03-29T07:23:57.941Z,1631.25
2019-03-29T07:24:57.943Z,1636.88
2019-03-29T07:25:57.951Z,1636.88
2019-03-29T07:26:57.954Z,1653.75
2019-03-29T07:27:57.953Z,1659.38
2019-03-29T07:28:57.959Z,1665.00
2019-03-29T07:29:57.963Z,1670.63
2019-03-29T07:30:57.967Z,1693.13
2019-03-29T07:31:57.975Z,1693.13
2019-03-29T07:32:57.980Z,1693.13
2019-03-29T07:33:57.983Z,1704.38
2019-03-29T07:34:57.989Z,1721.25
2019-03-29T07:35:57.990Z,1710.00
2019-03-29T07:36:57.991Z,1715.63
2019-03-29T07:37:58.000Z,1732.50
2019-03-29T07:38:58.005Z,1749.38
2019-03-29T07:39:58.004Z,1749.38
2019-03-29T07:40:58.010Z,1755.00
2019-03-29T07:41:58.021Z,1771.88
2019-03-29T07:42:58.020Z,1771.88
2019-03-29T07:43:58.031Z,1788.75
2019-03-29T07:44:58.037Z,1783.13
2019-03-29T07:45:58.038Z,1788.75
2019-03-29T07:46:58.045Z,1805.63
2019-03-29T07:47:58.044Z,1800.00
2019-03-29T07:48:58.052Z,1805.63
2019-03-29T07:49:58.060Z,1816.88
2019-03-29T07:50:58.065Z,1828.13
2019-03-29T07:51:58.077Z,1839.38
2019-03-29T07:52:58.081Z,1845.00
2019-03-29T07:53:58.085Z,1839.38
2019-03-29T07:54:58.095Z,1856.25
2019-03-29T07:55:58.107Z,1856.25
2019-03-29T07:56:58.111Z,1861.88
2019-03-29T07:57:58.115Z,1867.50
2019-03-29T07:58:58.119Z,1873.13
2019-03-29T07:59:58.122Z,1878.75
2019-03-29T08:00:58.128Z,1878.75
2019-03-29T08:01:58.138Z,1890.00
2019-03-29T08:02:58.142Z,1901.25
2019-03-29T08:03:58.156Z,1912.50
2019-03-29T08:04:58.165Z,1918.13
2019-03-29T08:05:58.171Z,1918.13
2019-03-29T08:06:58.178Z,1935.00
2019-03-29T08:07:58.182Z,1946.25
2019-03-29T08:08:58.191Z,1940.63
2019-03-29T08:09:58.203Z,1935.00
2019-03-29T08:10:59.075Z,1951.88
2019-03-29T08:11:58.214Z,1963.13
2019-03-29T08:12:58.222Z,1968.75
2019-03-29T08:13:58.227Z,1980.00
2019-03-29T08:14:58.236Z,1980.00
2019-03-29T08:15:58.247Z,1974.38
2019-03-29T08:16:58.257Z,1991.25
2019-03-29T08:18:01.363Z,1996.88
2019-03-29T08:18:58.272Z,1996.88
2019-03-29T08:20:35.986Z,2013.75
2019-03-29T08:20:58.293Z,2025.00
2019-03-29T08:21:58.300Z,2030.63
2019-03-29T08:22:58.305Z,2030.63
2019-03-29T08:23:58.318Z,2047.50
2019-03-29T08:24:59.332Z,2058.75
2019-03-29T08:25:58.335Z,2075.63
2019-03-29T08:26:58.343Z,2075.63
2019-03-29T08:27:58.355Z,1665.00
2019-03-29T08:28:58.364Z,1670.63
2019-03-29T08:29:58.369Z,1715.63
2019-03-29T08:30:58.378Z,1743.75
2019-03-29T08:31:58.381Z,1783.13
2019-03-29T08:32:58.390Z,1833.75
2019-03-29T08:33:58.401Z,1873.13
2019-03-29T08:34:58.410Z,1912.50
2019-03-29T08:35:58.422Z,1963.13
2019-03-29T08:36:58.433Z,2075.63
2019-03-29T08:37:58.444Z,2193.75
2019-03-29T08:38:58.452Z,2418.75
2019-03-29T08:39:58.462Z,2649.38
2019-03-29T08:40:58.467Z,2880.00
2019-03-29T08:42:00.323Z,3082.50
2019-03-29T08:42:58.492Z,3228.75
2019-03-29T08:43:58.496Z,3436.88
2019-03-29T08:44:58.507Z,3380.63
2019-03-29T08:45:58.515Z,3403.13
2019-03-29T08:46:58.524Z,3571.88
2019-03-29T08:47:58.538Z,3667.50
2019-03-29T08:48:58.547Z,3633.75
2019-03-29T08:49:58.556Z,3690.00
2019-03-29T08:50:58.567Z,3802.50
2019-03-29T08:51:58.581Z,3982.50
2019-03-29T08:52:58.591Z,4185.00
2019-03-29T08:53:58.603Z,4365.00
2019-03-29T08:54:58.609Z,4376.25
2019-03-29T08:55:58.620Z,4708.13
2019-03-29T08:56:58.627Z,4781.25
2019-03-29T08:57:58.643Z,4888.13
2019-03-29T08:58:58.654Z,5000.63
2019-03-29T08:59:58.661Z,4786.88
2019-03-29T09:00:58.674Z,5096.25
2019-03-29T09:01:58.686Z,5343.75
2019-03-29T09:02:58.713Z,5006.25
2019-03-29T09:04:05.008Z,4972.50
2019-03-29T09:04:58.724Z,4938.75
2019-03-29T09:05:58.737Z,4876.88
2019-03-29T09:06:58.747Z,4595.63
2019-03-29T09:07:58.758Z,4381.88
2019-03-29T09:08:58.769Z,4331.25
2019-03-29T09:09:58.776Z,4381.88
2019-03-29T09:10:58.790Z,4533.75
2019-03-29T09:11:58.804Z,4466.25
2019-03-29T09:12:58.818Z,4095.00
2019-03-29T09:13:58.826Z,4038.75
2019-03-29T09:14:58.836Z,4038.75
2019-03-29T09:15:58.856Z,3915.00
2019-03-29T09:16:58.864Z,3774.38
2019-03-29T09:18:00.005Z,3684.38
2019-03-29T09:18:58.891Z,3583.13
2019-03-29T09:19:58.899Z,3504.38
2019-03-29T09:20:58.936Z,3487.50
2019-03-29T09:21:58.925Z,3577.50
2019-03-29T09:22:58.972Z,3577.50
2019-03-29T09:23:58.954Z,3532.50
2019-03-29T09:24:58.966Z,3470.63
2019-03-29T09:25:58.979Z,3538.13
2019-03-29T09:26:58.990Z,3594.38
2019-03-29T09:27:58.999Z,3594.38
2019-03-29T09:28:59.011Z,3560.63
2019-03-29T09:29:59.029Z,3616.88
2019-03-29T09:30:59.039Z,3656.25
2019-03-29T09:31:59.054Z,3611.25
2019-03-29T09:32:59.062Z,3555.00
2019-03-29T09:33:59.167Z,3633.75
2019-03-29T09:34:59.093Z,3690.00
2019-03-29T09:35:59.105Z,3650.63
2019-03-29T09:37:00.104Z,3515.63
2019-03-29T09:37:59.131Z,3510.00
2019-03-29T09:38:59.145Z,3571.88
2019-03-29T09:39:59.154Z,3549.38
2019-03-29T09:40:59.460Z,3521.25
2019-03-29T09:41:59.178Z,3611.25
2019-03-29T09:43:07.180Z,3605.63
2019-03-29T09:43:59.209Z,3571.88
2019-03-29T09:44:59.223Z,3560.63
2019-03-29T09:45:59.233Z,3633.75
2019-03-29T09:46:59.250Z,3746.25
2019-03-29T09:47:59.264Z,3892.50
2019-03-29T09:48:59.280Z,3881.25
2019-03-29T09:49:59.298Z,3864.38
2019-03-29T09:50:59.307Z,3915.00
2019-03-29T09:51:59.325Z,4038.75
2019-03-29T09:53:01.152Z,4117.50
2019-03-29T09:53:59.372Z,4033.13
2019-03-29T09:54:59.360Z,4145.63
2019-03-29T09:55:59.379Z,4246.88
2019-03-29T09:56:59.395Z,4201.88
2019-03-29T09:57:59.416Z,4095.00
2019-03-29T09:58:59.421Z,4083.75
2019-03-29T09:59:59.432Z,3892.50
2019-03-29T10:00:59.449Z,3757.50
2019-03-29T10:01:59.465Z,3605.63
2019-03-29T10:02:59.481Z,3549.38
2019-03-29T10:03:59.494Z,3588.75
2019-03-29T10:04:59.508Z,3532.50
2019-03-29T10:05:59.518Z,3318.75
2019-03-29T10:06:59.536Z,3048.75
2019-03-29T10:07:59.548Z,2913.75
2019-03-29T10:08:59.562Z,2880.00
2019-03-29T10:09:59.578Z,2880.00
2019-03-29T10:10:59.589Z,2868.75
2019-03-29T10:11:59.603Z,2885.63
2019-03-29T10:12:59.614Z,2896.88
2019-03-29T10:13:59.630Z,2857.50
2019-03-29T10:14:59.643Z,2846.25
2019-03-29T10:15:59.663Z,2880.00
2019-03-29T10:16:59.677Z,2874.38
2019-03-29T10:17:59.686Z,2868.75
2019-03-29T10:18:59.700Z,2863.13
2019-03-29T10:19:59.722Z,2863.13
2019-03-29T10:20:59.733Z,2835.00
2019-03-29T10:21:59.743Z,2823.75
2019-03-29T10:22:59.757Z,2761.88
2019-03-29T10:23:59.770Z,2767.50
2019-03-29T10:25:02.250Z,2739.38
2019-03-29T10:25:59.795Z,2745.00
2019-03-29T10:26:59.808Z,2716.88
2019-03-29T10:27:59.831Z,2683.13
2019-03-29T10:28:59.842Z,2598.75
2019-03-29T10:29:59.857Z,2531.25
2019-03-29T10:30:59.872Z,2531.25
2019-03-29T10:32:00.073Z,2491.88
2019-03-29T10:32:59.895Z,2491.88
2019-03-29T10:33:59.917Z,2508.75
2019-03-29T10:34:59.927Z,2486.25
2019-03-29T10:35:59.939Z,2508.75
2019-03-29T10:36:59.950Z,2745.00
2019-03-29T10:37:59.962Z,2829.38
2019-03-29T10:38:59.975Z,2542.50
2019-03-29T10:39:59.997Z,2418.75
2019-03-29T10:41:00.008Z,2266.88
2019-03-29T10:42:00.020Z,2255.63
2019-03-29T10:43:00.034Z,2255.63
2019-03-29T10:44:00.042Z,2233.13
2019-03-29T10:45:00.380Z,2255.63
2019-03-29T10:46:00.074Z,2255.63
2019-03-29T10:47:00.086Z,2278.13
2019-03-29T10:48:00.108Z,2430.00
2019-03-29T10:49:00.119Z,2958.75
2019-03-29T10:50:00.345Z,3211.88
2019-03-29T10:51:00.144Z,3048.75
2019-03-29T10:52:00.161Z,3223.13
2019-03-29T10:53:00.177Z,3633.75
2019-03-29T10:54:00.188Z,4050.00
2019-03-29T10:55:00.366Z,4083.75
2019-03-29T10:56:00.310Z,3960.00
2019-03-29T10:57:00.224Z,3875.63
2019-03-29T10:58:00.241Z,3920.63
2019-03-29T10:59:00.257Z,3931.88
2019-03-29T11:00:00.408Z,3841.88
2019-03-29T11:01:00.285Z,3780.00
2019-03-29T11:02:00.300Z,3718.13
2019-03-29T11:03:00.311Z,3628.13
2019-03-29T11:04:00.317Z,3903.75
2019-03-29T11:05:00.354Z,3943.13
2019-03-29T11:06:00.351Z,3853.13
2019-03-29T11:07:00.363Z,4033.13
2019-03-29T11:08:00.372Z,4134.38
2019-03-29T11:09:00.383Z,4218.75
2019-03-29T11:10:00.477Z,4117.50
2019-03-29T11:11:00.412Z,3976.88
2019-03-29T11:12:00.429Z,3937.50
2019-03-29T11:13:11.959Z,4038.75
2019-03-29T11:14:00.455Z,3915.00
2019-03-29T11:15:00.468Z,3240.00
2019-03-29T11:16:00.485Z,4005.00
2019-03-29T11:17:00.489Z,4005.00
2019-03-29T11:18:00.498Z,4095.00
2019-03-29T11:19:00.510Z,4106.25
2019-03-29T11:20:00.528Z,4005.00
2019-03-29T11:21:00.540Z,4263.75
2019-03-29T11:22:00.553Z,4151.25
2019-03-29T11:23:00.562Z,4111.88
2019-03-29T11:24:00.575Z,4303.13
2019-03-29T11:25:00.590Z,4123.13
2019-03-29T11:26:00.608Z,4123.13
2019-03-29T11:27:00.622Z,4196.25
2019-03-29T11:28:00.624Z,4140.00
2019-03-29T11:29:00.636Z,3960.00
2019-03-29T11:30:00.649Z,2835.00
2019-03-29T11:31:00.656Z,911.25
2019-03-29T11:32:00.672Z,483.75
2019-03-29T11:33:00.683Z,461.25
2019-03-29T11:34:00.693Z,444.38
2019-03-29T11:35:00.702Z,438.75
2019-03-29T11:36:00.707Z,438.75
2019-03-29T11:37:00.716Z,433.13
2019-03-29T11:38:00.730Z,438.75
2019-03-29T11:39:00.744Z,433.13
2019-03-29T11:40:00.743Z,433.13
2019-03-29T11:41:00.752Z,427.50
2019-03-29T11:42:03.519Z,427.50
2019-03-29T11:43:00.768Z,427.50
2019-03-29T11:44:00.779Z,427.50
2019-03-29T11:45:00.786Z,427.50
2019-03-29T11:46:00.793Z,433.13
2019-03-29T11:47:00.796Z,427.50
2019-03-29T11:48:08.259Z,433.13
2019-03-29T11:49:00.805Z,427.50
2019-03-29T11:50:00.809Z,427.50
2019-03-29T11:51:00.824Z,427.50
2019-03-29T11:52:00.819Z,433.13
2019-03-29T11:53:00.824Z,433.13
2019-03-29T11:54:00.823Z,438.75
2019-03-29T11:55:00.826Z,433.13
2019-03-29T11:56:00.837Z,427.50
2019-03-29T11:57:00.837Z,421.88
2019-03-29T11:58:00.841Z,416.25
2019-03-29T11:59:00.846Z,410.63
2019-03-29T12:00:00.843Z,410.63
2019-03-29T12:01:00.845Z,410.63
2019-03-29T12:02:00.849Z,405.00
2019-03-29T12:03:00.846Z,410.63
2019-03-29T12:04:00.852Z,410.63
2019-03-29T12:05:00.854Z,410.63
2019-03-29T12:06:00.858Z,410.63
2019-03-29T12:07:03.598Z,405.00
2019-03-29T12:08:00.855Z,399.38
2019-03-29T12:09:00.858Z,393.75
2019-03-29T12:10:00.864Z,393.75
2019-03-29T12:11:00.863Z,388.13
2019-03-29T12:12:00.866Z,388.13
2019-03-29T12:13:00.862Z,388.13
2019-03-29T12:14:00.865Z,388.13
2019-03-29T12:15:00.861Z,382.50
2019-03-29T12:16:00.865Z,382.50
2019-03-29T12:17:00.868Z,382.50
2019-03-29T12:18:00.867Z,382.50
2019-03-29T12:19:00.866Z,382.50
2019-03-29T12:20:00.864Z,382.50
2019-03-29T12:21:00.865Z,376.88
2019-03-29T12:22:00.869Z,376.88
2019-03-29T12:23:00.873Z,371.25
2019-03-29T12:24:00.879Z,371.25
2019-03-29T12:25:00.876Z,365.63
2019-03-29T12:26:00.870Z,365.63
2019-03-29T12:27:00.872Z,360.00
2019-03-29T12:28:00.875Z,354.38
2019-03-29T12:29:00.878Z,354.38
2019-03-29T12:30:00.875Z,354.38
2019-03-29T12:31:00.877Z,348.75
2019-03-29T12:32:00.872Z,348.75
2019-03-29T12:33:00.873Z,348.75
2019-03-29T12:34:00.871Z,343.13
2019-03-29T12:35:00.873Z,337.50
2019-03-29T12:36:00.877Z,331.88
2019-03-29T12:37:00.879Z,331.88
2019-03-29T12:38:00.880Z,326.25
2019-03-29T12:39:00.879Z,326.25